ADDS METAR Data INFO
IDs: Format: Raw Decoded Include TAF

Data at: 1747 UTC 21 Oct 2017

KNEW 211653Z 11012KT 10SM FEW026 BKN033 28/23 A3008 RMK AO2 SLP178 T02780233
KNEW 211553Z 11009KT 10SM CLR 27/23 A3008 RMK AO2 SLP181 T02670228
KNEW 211453Z 12011KT 10SM CLR 27/22 A3008 RMK AO2 SLP180 T02670222 53014
KNEW 211353Z 10010KT 10SM CLR 26/22 A3006 RMK AO2 SLP173 T02560222
KNEW 211253Z 11006KT 10SM OVC035 24/22 A3006 RMK AO2 SLP174 T02440222
KNEW 211153Z 11008KT 10SM CLR 24/22 A3004 RMK AO2 SLP167 T02440217 10244 20239 53005
KNEW 211053Z AUTO 11007KT 10SM CLR 24/21 A3003 RMK AO2 SLP162 T02440211
KNEW 210953Z AUTO 11007KT 10SM CLR 24/21 A3002 RMK AO2 SLP157 T02390211
KNEW 210853Z AUTO 12008KT 10SM CLR 24/21 A3003 RMK AO2 SLP162 T02440206 58004
KNEW 210753Z AUTO 13008KT 10SM CLR 24/21 A3004 RMK AO2 SLP165 T02440211
KNEW 210653Z AUTO 12008KT 10SM CLR 24/21 A3004 RMK AO2 SLP167 T02440211
KNEW 210553Z AUTO 12010KT 10SM CLR 24/22 A3004 RMK AO2 SLP166 T02440217 10244 20239 402720206 58009
KNEW 210525Z AUTO 11014KT 10SM SCT027 BKN037 24/22 A3004 RMK AO2 T02440222
KNEW 210512Z AUTO 12013KT 10SM FEW016 BKN027 OVC037 24/22 A3005 RMK AO2 T02440222
KNEW 210502Z AUTO 11012KT 10SM FEW016 BKN031 OVC095 24/23 A3006 RMK AO2 T02440228
KNEW 210453Z AUTO 10012KT 10SM FEW013 BKN028 OVC095 24/23 A3006 RMK AO2 SLP173 T02440228
KNEW 210353Z AUTO 09011KT 10SM SCT024 BKN030 BKN080 24/23 A3007 RMK AO2 SLP176 T02390228
KNEW 210350Z AUTO 09010KT 10SM FEW024 BKN030 BKN080 24/23 A3007 RMK AO2
KNEW 210340Z AUTO 09011KT 10SM SCT024 BKN029 BKN085 24/23 A3007 RMK AO2 T02390228
KNEW 210253Z AUTO 09010KT 10SM CLR 24/22 A3008 RMK AO2 SLP178 T02390222 53006
KNEW 210153Z 09010KT 10SM CLR 24/22 A3006 RMK AO2 SLP173 T02390222
KNEW 210053Z 08010KT 10SM CLR 24/22 A3006 RMK AO2 SLP173 T02390217
KNEW 210011Z 08010KT 10SM SCT022 24/22 A3006 RMK AO2 T02390217
KNEW 202353Z 09011KT 10SM BKN022 24/22 A3006 RMK AO2 SLP172 60000 T02390217 10272 20233 50000
KNEW 202300Z 08012KT 10SM BKN023 BKN085 24/22 A3006 RMK AO2 T02440217
KNEW 202253Z 08012KT 10SM SCT023 BKN085 24/22 A3006 RMK AO2 SLP173 T02440222
KNEW 202153Z 09012KT 10SM FEW009 OVC060 23/21 A3006 RMK AO2 RAB31E42 SLP172 P0000 T02330211
KNEW 202137Z 09017G23KT 6SM -RA BR FEW008 OVC060 24/22 A3006 RMK AO2 RAB31 P0000 T02390222
KNEW 202053Z 09018KT 10SM FEW033 BKN060 25/22 A3006 RMK AO2 SLP171 T02500217 56018
KNEW 202010Z 09016KT 10SM FEW020 SCT025 OVC060 26/22 A3006 RMK AO2 T02560217
KNEW 201953Z 09013KT 10SM BKN025 BKN065 OVC080 26/22 A3006 RMK AO2 SLP172 T02610217
KNEW 201932Z 08014KT 10SM SCT022 BKN027 OVC055 27/21 A3006 RMK AO2 T02670211
KNEW 201853Z 08014KT 10SM CLR 26/21 A3008 RMK AO2 SLP178 T02610211
KNEW 201753Z 09013KT 10SM FEW021 27/22 A3011 RMK AO2 SLP190 T02720217 10272 20206 58016
KNEW 201730Z 09012G22KT 10SM FEW020 26/22 A3012 RMK AO2 T02610217
KNEW 201704Z 07013KT 10SM BKN022 26/22 A3013 RMK AO2 T02610217
KNEW 201653Z 08011KT 10SM SCT023 26/21 A3014 RMK AO2 SLP198 T02560211
KNEW 201553Z 06007KT 10SM CLR 24/20 A3016 RMK AO2 SLP205 T02440200
KNEW 201453Z 08011KT 10SM CLR 23/19 A3016 RMK AO2 SLP206 T02280189 52005
KNEW 201353Z 07011KT 10SM CLR 22/18 A3016 RMK AO2 SLP205 T02170183
KNEW 201253Z 08012KT 10SM SCT040 21/18 A3015 RMK AO2 SLP201 T02110183
KNEW 201153Z 07009KT 10SM CLR 21/18 A3014 RMK AO2 SLP201 T02060183 10228 20206 53009
KNEW 201053Z 07011KT 10SM CLR 21/18 A3013 RMK AO2 SLP197 T02110183
KNEW 200953Z 08009KT 10SM CLR 21/18 A3013 RMK AO2 SLP195 T02110183
KNEW 200853Z 07013KT 10SM CLR 22/19 A3012 RMK AO2 SLP192 T02170189 56015
KNEW 200753Z 07010KT 10SM CLR 22/19 A3013 RMK AO2 SLP196 T02220194
KNEW 200653Z 07011KT 10SM CLR 23/19 A3015 RMK AO2 SLP201 T02280194
KNEW 200553Z 08006KT 10SM CLR 23/21 A3016 RMK AO2 SLP207 T02280206 10239 20222 402720200 50001